Time;durP1;ratioP1;P1;durP2;ratioP2;P2;SDS_P1;SDS_P2;PMS_P1;PMS_P2;Temp;Humidity;BMP_temperature;BMP_pressure;BME280_temperature;BME280_humidity;BME280_pressure;Samples;Min_cycle;Max_cycle;Signal;HPM_P1;HPM_P2
2020/12/02 00:16:17;;;;;;;91.20;46.53;;;;;;;-2.60;70.53;94829.46;834376;71;33281;-79
2020/12/02 00:46:16;;;;;;;73.67;36.73;;;;;;;-2.71;70.49;94826.50;828788;71;32690;-77
2020/12/02 01:01:48;;;;;;;79.53;40.92;;;;;;;-2.81;70.55;94819.67;817346;72;32937;-76
2020/12/02 01:31:42;;;;;;;120.90;54.15;;;;;;;-2.84;71.43;94818.30;802097;74;32996;-78
2020/12/02 02:01:24;;;;;;;131.75;60.45;;;;;;;-2.81;71.48;94824.80;834949;71;32857;-77
2020/12/02 02:46:49;;;;;;;79.12;40.23;;;;;;;-2.85;70.99;94830.81;810321;72;32828;-78
2020/12/02 03:01:37;;;;;;;62.40;33.38;;;;;;;-2.97;70.64;94837.52;834485;71;32734;-77
2020/12/02 03:31:18;;;;;;;62.30;31.10;;;;;;;-3.01;71.10;94828.63;801652;74;32875;-75
2020/12/02 03:46:17;;;;;;;57.60;29.02;;;;;;;-3.01;70.55;94831.19;828970;71;32761;-76
2020/12/02 04:01:12;;;;;;;44.00;24.50;;;;;;;-3.09;70.58;94827.52;828255;71;31480;-80
2020/12/02 05:01:55;;;;;;;48.20;26.62;;;;;;;-2.97;71.36;94850.34;794375;74;33381;-80
2020/12/02 05:16:21;;;;;;;46.33;25.08;;;;;;;-2.90;72.02;94851.64;834859;71;32810;-77
2020/12/02 05:31:38;;;;;;;44.70;24.72;;;;;;;-2.84;71.33;94864.98;793499;72;33630;-72
2020/12/02 05:46:26;;;;;;;53.35;26.12;;;;;;;-2.80;70.57;94885.92;828063;71;32841;-71
2020/12/02 06:01:47;;;;;;;49.60;25.10;;;;;;;-2.76;70.70;94911.01;843091;70;32848;-74
2020/12/02 06:16:17;;;;;;;58.63;32.83;;;;;;;-2.02;69.96;94911.89;833696;71;31371;-75
2020/12/02 06:31:41;;;;;;;66.00;37.98;;;;;;;-0.66;68.00;94912.38;765818;76;33118;-74
2020/12/02 06:46:21;;;;;;;106.75;53.05;;;;;;;0.70;66.26;94923.52;835151;71;32722;-75
2020/12/02 07:31:46;;;;;;;81.70;48.85;;;;;;;3.49;56.83;94913.14;786201;74;31523;-76
2020/12/02 07:46:43;;;;;;;70.67;42.53;;;;;;;4.40;54.22;94920.05;800122;74;33016;-76
2020/12/02 08:31:39;;;;;;;70.80;47.43;;;;;;;6.95;49.94;94923.56;779726;75;32989;-75
2020/12/02 08:46:58;;;;;;;71.28;46.92;;;;;;;7.19;48.36;94914.02;779943;75;33003;-77
2020/12/02 09:01:44;;;;;;;74.82;48.60;;;;;;;7.36;48.65;94913.81;787872;75;32988;-77
2020/12/02 09:16:11;;;;;;;69.05;45.90;;;;;;;7.96;48.08;94907.67;829393;71;31441;-78
2020/12/02 09:31:36;;;;;;;69.97;46.30;;;;;;;8.27;46.37;94891.45;794155;74;32918;-76
2020/12/02 09:46:21;;;;;;;74.15;47.53;;;;;;;8.80;46.18;94870.23;834921;71;32746;-77
2020/12/02 11:01:35;;;;;;;33.00;23.80;;;;;;;9.68;44.03;94779.67;794175;73;33371;-77
2020/12/02 11:16:56;;;;;;;32.83;22.93;;;;;;;9.57;43.60;94767.70;794069;74;33023;-74
2020/12/02 11:31:38;;;;;;;32.80;24.30;;;;;;;;;;793774;72;32883;-79
2020/12/02 11:46:45;;;;;;;33.98;23.52;;;;;;;9.11;46.06;94749.70;816120;72;32823;-80
2020/12/02 12:01:53;;;;;;;39.27;25.43;;;;;;;;;;785856;75;33529;-76
2020/12/02 12:16:19;;;;;;;38.65;24.47;;;;;;;8.34;47.07;94726.50;826681;71;33299;-76
2020/12/02 12:31:28;;;;;;;41.65;25.00;;;;;;;7.86;48.63;94728.72;829073;71;33304;-77
2020/12/02 12:46:18;;;;;;;33.98;21.10;;;;;;;7.49;49.46;94727.97;833343;71;32739;-80
2020/12/02 13:01:20;;;;;;;31.85;20.62;;;;;;;7.13;50.56;94741.00;800755;74;32891;-76
2020/12/02 13:16:27;;;;;;;31.95;21.82;;;;;;;6.74;52.07;94727.11;834102;70;32745;-77
2020/12/02 13:31:54;;;;;;;43.95;28.32;;;;;;;5.99;54.08;94735.15;816012;72;32868;-76
2020/12/02 13:46:11;;;;;;;41.05;23.75;;;;;;;5.30;56.17;94722.17;833779;71;28633;-76
2020/12/02 14:31:48;;;;;;;44.25;25.80;;;;;;;3.90;62.38;94719.16;772635;76;33248;-76
2020/12/02 14:46:42;;;;;;;39.20;24.90;;;;;;;3.55;63.86;94716.34;786744;74;32950;-75
2020/12/02 15:01:16;;;;;;;41.05;24.52;;;;;;;3.19;64.91;94724.88;833499;71;32727;-77
2020/12/02 15:16:43;;;;;;;47.17;27.27;;;;;;;2.92;65.66;94731.18;779493;75;32998;-78
2020/12/02 15:31:49;;;;;;;42.88;25.77;;;;;;;2.67;66.97;94728.91;778614;75;33121;-76
2020/12/02 15:46:36;;;;;;;46.02;27.95;;;;;;;2.46;67.54;94743.30;827959;71;32639;-76
2020/12/02 16:01:32;;;;;;;37.30;25.68;;;;;;;9.31;62.86;94734.39;835021;71;32796;-79
2020/12/02 16:16:15;;;;;;;58.42;36.60;;;;;;;4.96;61.22;94753.08;828337;71;31774;-78
2020/12/02 17:16:45;;;;;;;112.77;61.02;;;;;;;1.65;70.88;94810.45;834998;71;31759;-78
2020/12/02 17:46:48;;;;;;;101.78;56.40;;;;;;;1.14;72.03;94819.56;821491;71;31738;-79
2020/12/02 18:01:31;;;;;;;102.42;54.25;;;;;;;0.93;72.25;94825.50;834712;71;31781;-76
2020/12/02 18:16:58;;;;;;;98.30;56.00;;;;;;;0.76;73.58;94821.94;808282;71;31886;-78
2020/12/02 18:31:51;;;;;;;93.90;53.95;;;;;;;0.70;73.43;94817.13;774054;76;32793;-77
2020/12/02 19:01:39;;;;;;;85.50;47.35;;;;;;;0.49;73.92;94809.34;786991;75;31991;-78
2020/12/02 19:16:38;;;;;;;115.10;59.67;;;;;;;0.33;74.10;94807.35;834267;71;31772;-78
2020/12/02 19:31:35;;;;;;;115.32;59.33;;;;;;;0.33;74.90;94812.00;835218;71;31740;-76
2020/12/02 19:46:21;;;;;;;103.02;56.80;;;;;;;0.26;75.06;94816.44;827624;71;31056;-78
2020/12/02 20:01:25;;;;;;;106.03;54.95;;;;;;;0.24;74.58;94830.05;828476;71;31720;-79
2020/12/02 21:01:21;;;;;;;102.10;53.85;;;;;;;0.15;74.13;94859.22;828857;71;33217;-78
2020/12/02 21:16:45;;;;;;;85.17;46.85;;;;;;;0.14;74.05;94859.42;824664;71;32869;-78
2020/12/02 21:31:47;;;;;;;73.35;40.50;;;;;;;0.11;73.73;94863.73;794889;74;32849;-76
2020/12/02 22:01:41;;;;;;;68.02;38.17;;;;;;;0.08;73.95;94857.22;834591;71;32815;-78
2020/12/02 22:16:27;;;;;;;62.17;35.05;;;;;;;0.11;73.20;94834.07;827717;71;32493;-77
2020/12/02 23:16:46;;;;;;;46.70;25.85;;;;;;;-0.03;73.20;94781.82;816074;72;33412;-77
2020/12/02 23:31:39;;;;;;;49.85;28.30;;;;;;;0.05;73.43;94787.20;827911;71;33230;-77
